BAW129 LGAV-HEAX
Flight info
| Callsign | BAW129 |
|---|---|
| Flight time | 1h 14m |
| Altitude | 41000 |
| Route | KEA1N KEA UL607 PAXIS L607 NABSI L617 NOZ DCT |
| Aircraft | A35K/H-SBDE1E2E3GHIJ1J3J4J5J6M1M2P2RWXYZ/LB1D1 |
Departure
| Time | 2026-04-20 15:51 |
|---|---|
| Airport | Athens Eleftherios Venizelos International Airport (LGAV) |
Arrival
| Time | 2026-04-20 17:05 |
|---|---|
| Airport | Alexandria International Airport (HEAX) |
| Time | Latitude | Longitude | Altitude | Speed | Heading |
|---|---|---|---|---|---|
| 2026-04-20 15:20 | 37.93320 | 23.94591 | 309 ft | 0 kts | 306° |
| 2026-04-20 15:40 | 37.93320 | 23.94592 | 307 ft | 1 kts | 306° |
| 2026-04-20 15:40 | 37.93312 | 23.94605 | 307 ft | 3 kts | 309° |
| 2026-04-20 15:41 | 37.93301 | 23.94623 | 306 ft | 2 kts | 308° |
| 2026-04-20 15:41 | 37.93290 | 23.94638 | 305 ft | 3 kts | 334° |
| 2026-04-20 15:41 | 37.93274 | 23.94642 | 305 ft | 3 kts | 20° |
| 2026-04-20 15:41 | 37.93256 | 23.94631 | 305 ft | 3 kts | 36° |
| 2026-04-20 15:42 | 37.93244 | 23.94619 | 307 ft | 1 kts | 37° |
| 2026-04-20 15:42 | 37.93241 | 23.94616 | 307 ft | 0 kts | 37° |
| 2026-04-20 15:45 | 37.93244 | 23.94619 | 307 ft | 2 kts | 37° |
| 2026-04-20 15:45 | 37.93260 | 23.94634 | 305 ft | 2 kts | 37° |
| 2026-04-20 15:45 | 37.93287 | 23.94661 | 307 ft | 9 kts | 36° |
| 2026-04-20 15:45 | 37.93371 | 23.94738 | 311 ft | 20 kts | 36° |
| 2026-04-20 15:46 | 37.93440 | 23.94819 | 311 ft | 13 kts | 63° |
| 2026-04-20 15:46 | 37.93401 | 23.94953 | 310 ft | 21 kts | 120° |
| 2026-04-20 15:46 | 37.93455 | 23.95095 | 308 ft | 21 kts | 37° |
| 2026-04-20 15:46 | 37.93580 | 23.95215 | 306 ft | 25 kts | 37° |
| 2026-04-20 15:47 | 37.93728 | 23.95354 | 307 ft | 28 kts | 36° |
| 2026-04-20 15:47 | 37.93888 | 23.95507 | 306 ft | 28 kts | 38° |
| 2026-04-20 15:47 | 37.94052 | 23.95664 | 306 ft | 31 kts | 36° |
| 2026-04-20 15:47 | 37.94227 | 23.95831 | 307 ft | 31 kts | 37° |
| 2026-04-20 15:48 | 37.94386 | 23.95979 | 308 ft | 28 kts | 36° |
| 2026-04-20 15:48 | 37.94537 | 23.96122 | 309 ft | 21 kts | 38° |
| 2026-04-20 15:48 | 37.94642 | 23.96226 | 309 ft | 20 kts | 38° |
| 2026-04-20 15:48 | 37.94764 | 23.96342 | 310 ft | 23 kts | 36° |
| 2026-04-20 15:49 | 37.94903 | 23.96471 | 310 ft | 26 kts | 37° |
| 2026-04-20 15:49 | 37.95056 | 23.96616 | 312 ft | 29 kts | 37° |
| 2026-04-20 15:49 | 37.95222 | 23.96774 | 312 ft | 29 kts | 37° |
| 2026-04-20 15:49 | 37.95289 | 23.96883 | 312 ft | 15 kts | 95° |
| 2026-04-20 15:50 | 37.95237 | 23.96990 | 315 ft | 14 kts | 139° |
| 2026-04-20 15:50 | 37.95151 | 23.96983 | 316 ft | 14 kts | 210° |
| 2026-04-20 15:50 | 37.95124 | 23.96960 | 313 ft | 0 kts | 215° |
| 2026-04-20 15:51 | 37.95085 | 23.96924 | 315 ft | 35 kts | 216° |
| 2026-04-20 15:51 | 37.94569 | 23.96433 | 303 ft | 147 kts | 217° |
| 2026-04-20 15:51 | 37.93262 | 23.95245 | 1452 ft | 180 kts | 215° |
| 2026-04-20 15:51 | 37.92236 | 23.94332 | 2765 ft | 186 kts | 216° |
| 2026-04-20 15:52 | 37.91128 | 23.93480 | 3392 ft | 193 kts | 209° |
| 2026-04-20 15:52 | 37.90280 | 23.93005 | 3583 ft | 209 kts | 207° |
| 2026-04-20 15:52 | 37.88875 | 23.92218 | 3872 ft | 231 kts | 208° |
| 2026-04-20 15:53 | 37.85764 | 23.90469 | 4869 ft | 263 kts | 197° |
| 2026-04-20 15:53 | 37.83903 | 23.90429 | 5531 ft | 276 kts | 169° |
| 2026-04-20 15:53 | 37.82114 | 23.91351 | 6327 ft | 282 kts | 153° |
| 2026-04-20 15:53 | 37.80454 | 23.92718 | 7094 ft | 287 kts | 145° |
| 2026-04-20 15:54 | 37.78883 | 23.94300 | 7885 ft | 291 kts | 141° |
| 2026-04-20 15:54 | 37.77340 | 23.95972 | 8685 ft | 294 kts | 141° |
| 2026-04-20 15:54 | 37.75784 | 23.97665 | 9494 ft | 297 kts | 141° |
| 2026-04-20 15:54 | 37.74216 | 23.99331 | 10228 ft | 301 kts | 142° |
| 2026-04-20 15:55 | 37.72547 | 24.01053 | 10614 ft | 319 kts | 143° |
| 2026-04-20 15:55 | 37.70762 | 24.02849 | 10912 ft | 338 kts | 143° |
| 2026-04-20 15:55 | 37.68864 | 24.04728 | 11232 ft | 355 kts | 143° |
| 2026-04-20 15:55 | 37.66867 | 24.06692 | 11584 ft | 369 kts | 143° |
| 2026-04-20 15:56 | 37.64822 | 24.08701 | 12170 ft | 375 kts | 143° |
| 2026-04-20 15:56 | 37.62750 | 24.10737 | 12757 ft | 380 kts | 143° |
| 2026-04-20 15:56 | 37.60653 | 24.12800 | 13373 ft | 385 kts | 143° |
| 2026-04-20 15:56 | 37.58526 | 24.14893 | 13951 ft | 389 kts | 143° |
| 2026-04-20 15:57 | 37.56379 | 24.17005 | 14489 ft | 393 kts | 143° |
| 2026-04-20 15:57 | 37.54213 | 24.19134 | 15035 ft | 397 kts | 143° |
| 2026-04-20 15:57 | 37.52020 | 24.21288 | 15602 ft | 401 kts | 143° |
| 2026-04-20 15:57 | 37.49836 | 24.23432 | 16163 ft | 404 kts | 143° |
| 2026-04-20 15:58 | 37.47609 | 24.25616 | 16758 ft | 408 kts | 143° |
| 2026-04-20 15:58 | 37.45357 | 24.27822 | 17314 ft | 412 kts | 143° |
| 2026-04-20 15:58 | 37.43084 | 24.30047 | 17882 ft | 416 kts | 143° |
| 2026-04-20 15:58 | 37.40784 | 24.32297 | 18372 ft | 421 kts | 143° |
| 2026-04-20 15:59 | 37.38462 | 24.34566 | 18867 ft | 424 kts | 143° |
| 2026-04-20 15:59 | 37.36148 | 24.36826 | 19345 ft | 428 kts | 143° |
| 2026-04-20 15:59 | 37.33788 | 24.39129 | 19840 ft | 431 kts | 143° |
| 2026-04-20 15:59 | 37.31406 | 24.41451 | 20344 ft | 435 kts | 143° |
| 2026-04-20 16:00 | 37.29008 | 24.43787 | 20813 ft | 438 kts | 143° |
| 2026-04-20 16:00 | 37.26586 | 24.46145 | 21282 ft | 442 kts | 143° |
| 2026-04-20 16:00 | 37.24146 | 24.48517 | 21744 ft | 445 kts | 143° |
| 2026-04-20 16:00 | 37.21687 | 24.50907 | 22203 ft | 449 kts | 144° |
| 2026-04-20 16:01 | 37.19210 | 24.53311 | 22664 ft | 452 kts | 144° |
| 2026-04-20 16:01 | 37.16717 | 24.55730 | 23146 ft | 455 kts | 144° |
| 2026-04-20 16:01 | 37.14235 | 24.58135 | 23546 ft | 459 kts | 144° |
| 2026-04-20 16:01 | 37.11694 | 24.60596 | 23902 ft | 463 kts | 144° |
| 2026-04-20 16:02 | 37.09136 | 24.63071 | 24270 ft | 466 kts | 144° |
| 2026-04-20 16:02 | 37.06563 | 24.65559 | 24660 ft | 468 kts | 144° |
| 2026-04-20 16:02 | 37.03983 | 24.68052 | 25030 ft | 471 kts | 144° |
| 2026-04-20 16:02 | 37.01372 | 24.70571 | 25425 ft | 474 kts | 144° |
| 2026-04-20 16:03 | 36.98753 | 24.73097 | 25822 ft | 477 kts | 144° |
| 2026-04-20 16:03 | 36.96115 | 24.75638 | 26231 ft | 480 kts | 144° |
| 2026-04-20 16:03 | 36.93458 | 24.78187 | 26658 ft | 483 kts | 144° |
| 2026-04-20 16:03 | 36.90708 | 24.80527 | 27082 ft | 485 kts | 149° |
| 2026-04-20 16:04 | 36.87853 | 24.82814 | 27531 ft | 488 kts | 149° |
| 2026-04-20 16:04 | 36.84963 | 24.85072 | 27941 ft | 493 kts | 150° |
| 2026-04-20 16:04 | 36.82034 | 24.87330 | 28399 ft | 497 kts | 150° |
| 2026-04-20 16:04 | 36.79079 | 24.89597 | 28882 ft | 500 kts | 150° |
| 2026-04-20 16:05 | 36.76102 | 24.91880 | 29344 ft | 504 kts | 150° |
| 2026-04-20 16:05 | 36.73139 | 24.94153 | 29818 ft | 508 kts | 150° |
| 2026-04-20 16:05 | 36.70114 | 24.96477 | 30267 ft | 512 kts | 150° |
| 2026-04-20 16:05 | 36.67073 | 24.98819 | 30688 ft | 515 kts | 150° |
| 2026-04-20 16:06 | 36.64006 | 25.01173 | 31116 ft | 519 kts | 150° |
| 2026-04-20 16:06 | 36.60926 | 25.03532 | 31527 ft | 521 kts | 150° |
| 2026-04-20 16:06 | 36.57818 | 25.05908 | 31868 ft | 526 kts | 151° |
| 2026-04-20 16:06 | 36.54688 | 25.08299 | 32221 ft | 530 kts | 151° |
| 2026-04-20 16:07 | 36.51578 | 25.10674 | 32601 ft | 533 kts | 151° |
| 2026-04-20 16:07 | 36.48410 | 25.13092 | 32972 ft | 536 kts | 151° |
| 2026-04-20 16:07 | 36.45222 | 25.15524 | 33329 ft | 539 kts | 151° |
| 2026-04-20 16:07 | 36.42030 | 25.17956 | 33811 ft | 538 kts | 151° |
| 2026-04-20 16:08 | 36.38841 | 25.20385 | 34304 ft | 537 kts | 151° |
| 2026-04-20 16:08 | 36.35663 | 25.22804 | 34764 ft | 535 kts | 151° |
| 2026-04-20 16:08 | 36.32493 | 25.25213 | 35190 ft | 534 kts | 152° |
| 2026-04-20 16:08 | 36.29317 | 25.27624 | 35553 ft | 535 kts | 152° |
| 2026-04-20 16:09 | 36.26142 | 25.30030 | 35970 ft | 534 kts | 152° |
| 2026-04-20 16:09 | 36.23016 | 25.32398 | 36395 ft | 533 kts | 152° |
| 2026-04-20 16:09 | 36.19846 | 25.34798 | 36832 ft | 532 kts | 152° |
| 2026-04-20 16:09 | 36.16694 | 25.37181 | 37274 ft | 531 kts | 152° |
| 2026-04-20 16:10 | 36.13545 | 25.39560 | 37692 ft | 530 kts | 152° |
| 2026-04-20 16:10 | 36.10401 | 25.41934 | 38088 ft | 530 kts | 152° |
| 2026-04-20 16:10 | 36.07257 | 25.44305 | 38471 ft | 529 kts | 153° |
| 2026-04-20 16:10 | 36.04115 | 25.46673 | 38767 ft | 529 kts | 153° |
| 2026-04-20 16:11 | 36.00966 | 25.49044 | 39010 ft | 530 kts | 153° |
| 2026-04-20 16:11 | 35.97860 | 25.51380 | 39285 ft | 529 kts | 153° |
| 2026-04-20 16:11 | 35.94715 | 25.53743 | 39554 ft | 529 kts | 153° |
| 2026-04-20 16:11 | 35.91572 | 25.56103 | 39816 ft | 528 kts | 153° |
| 2026-04-20 16:12 | 35.88433 | 25.58458 | 40072 ft | 528 kts | 153° |
| 2026-04-20 16:12 | 35.85296 | 25.60810 | 40315 ft | 528 kts | 153° |
| 2026-04-20 16:12 | 35.82156 | 25.63160 | 40551 ft | 527 kts | 153° |
| 2026-04-20 16:12 | 35.79024 | 25.65503 | 40774 ft | 527 kts | 153° |
| 2026-04-20 16:13 | 35.75887 | 25.67848 | 40974 ft | 527 kts | 153° |
| 2026-04-20 16:13 | 35.72739 | 25.70197 | 41024 ft | 528 kts | 153° |
| 2026-04-20 16:13 | 35.66506 | 25.74845 | 41026 ft | 528 kts | 153° |
| 2026-04-20 16:14 | 35.60220 | 25.79522 | 41026 ft | 528 kts | 153° |
| 2026-04-20 16:14 | 35.53933 | 25.84193 | 41029 ft | 528 kts | 153° |
| 2026-04-20 16:15 | 35.47648 | 25.88853 | 41029 ft | 528 kts | 154° |
| 2026-04-20 16:15 | 35.41359 | 25.93507 | 41026 ft | 528 kts | 154° |
| 2026-04-20 16:16 | 35.35112 | 25.98122 | 41024 ft | 528 kts | 154° |
| 2026-04-20 16:16 | 35.28821 | 26.02761 | 41026 ft | 528 kts | 154° |
| 2026-04-20 16:17 | 35.22526 | 26.07394 | 41019 ft | 528 kts | 154° |
| 2026-04-20 16:17 | 35.16222 | 26.12026 | 41027 ft | 528 kts | 154° |
| 2026-04-20 16:18 | 35.09963 | 26.16616 | 41026 ft | 528 kts | 154° |
| 2026-04-20 16:18 | 35.03971 | 26.21905 | 41026 ft | 534 kts | 145° |
| 2026-04-20 16:19 | 34.98270 | 26.27745 | 41027 ft | 535 kts | 143° |
| 2026-04-20 16:19 | 34.92615 | 26.33668 | 41022 ft | 536 kts | 143° |
| 2026-04-20 16:20 | 34.86986 | 26.39544 | 41023 ft | 537 kts | 144° |
| 2026-04-20 16:20 | 34.81295 | 26.45449 | 41023 ft | 537 kts | 144° |
| 2026-04-20 16:21 | 34.75606 | 26.51331 | 41026 ft | 537 kts | 144° |
| 2026-04-20 16:21 | 34.69940 | 26.57158 | 41025 ft | 537 kts | 144° |
| 2026-04-20 16:22 | 34.64241 | 26.63034 | 41007 ft | 536 kts | 144° |
| 2026-04-20 16:22 | 34.58543 | 26.68899 | 41024 ft | 537 kts | 144° |
| 2026-04-20 16:23 | 34.52833 | 26.74760 | 41024 ft | 537 kts | 144° |
| 2026-04-20 16:23 | 34.47121 | 26.80610 | 41033 ft | 537 kts | 144° |
| 2026-04-20 16:24 | 34.41407 | 26.86451 | 41035 ft | 537 kts | 144° |
| 2026-04-20 16:24 | 34.35735 | 26.92239 | 41030 ft | 537 kts | 144° |
| 2026-04-20 16:25 | 34.30005 | 26.98074 | 41032 ft | 537 kts | 144° |
| 2026-04-20 16:25 | 34.24275 | 27.03900 | 41032 ft | 538 kts | 144° |
| 2026-04-20 16:26 | 34.18544 | 27.09715 | 41032 ft | 538 kts | 144° |
| 2026-04-20 16:26 | 34.12849 | 27.15483 | 41030 ft | 538 kts | 144° |
| 2026-04-20 16:27 | 34.07117 | 27.21279 | 41031 ft | 537 kts | 145° |
| 2026-04-20 16:27 | 34.01385 | 27.27064 | 41032 ft | 538 kts | 145° |
| 2026-04-20 16:28 | 33.95620 | 27.32808 | 41024 ft | 535 kts | 150° |
| 2026-04-20 16:28 | 33.89532 | 27.37924 | 41034 ft | 533 kts | 151° |
| 2026-04-20 16:29 | 33.83376 | 27.42879 | 41034 ft | 532 kts | 152° |
| 2026-04-20 16:29 | 33.77244 | 27.47777 | 41021 ft | 532 kts | 152° |
| 2026-04-20 16:30 | 33.71072 | 27.52715 | 41036 ft | 533 kts | 152° |
| 2026-04-20 16:30 | 33.64906 | 27.57652 | 41037 ft | 533 kts | 152° |
| 2026-04-20 16:31 | 33.58729 | 27.62594 | 41034 ft | 533 kts | 152° |
| 2026-04-20 16:31 | 33.52553 | 27.67526 | 41037 ft | 533 kts | 152° |
| 2026-04-20 16:32 | 33.46406 | 27.72425 | 41034 ft | 533 kts | 152° |
| 2026-04-20 16:32 | 33.40225 | 27.77343 | 41044 ft | 533 kts | 152° |
| 2026-04-20 16:33 | 33.34040 | 27.82255 | 41046 ft | 533 kts | 153° |
| 2026-04-20 16:33 | 33.27859 | 27.87156 | 41029 ft | 533 kts | 153° |
| 2026-04-20 16:34 | 33.21675 | 27.92050 | 41031 ft | 533 kts | 153° |
| 2026-04-20 16:34 | 33.15491 | 27.96937 | 41033 ft | 533 kts | 153° |
| 2026-04-20 16:35 | 33.09352 | 28.01780 | 41041 ft | 533 kts | 153° |
| 2026-04-20 16:35 | 33.03146 | 28.06666 | 41042 ft | 533 kts | 153° |
| 2026-04-20 16:36 | 32.96952 | 28.11534 | 41041 ft | 533 kts | 153° |
| 2026-04-20 16:36 | 32.90786 | 28.16373 | 41037 ft | 533 kts | 153° |
| 2026-04-20 16:37 | 32.84588 | 28.21229 | 41025 ft | 534 kts | 153° |
| 2026-04-20 16:37 | 32.78382 | 28.26082 | 41040 ft | 534 kts | 153° |
| 2026-04-20 16:38 | 32.72166 | 28.30935 | 41040 ft | 534 kts | 153° |
| 2026-04-20 16:38 | 32.65990 | 28.35749 | 41040 ft | 534 kts | 153° |
| 2026-04-20 16:39 | 32.59779 | 28.40582 | 41040 ft | 534 kts | 153° |
| 2026-04-20 16:39 | 32.53569 | 28.45407 | 41039 ft | 534 kts | 153° |
| 2026-04-20 16:40 | 32.47347 | 28.50232 | 41040 ft | 533 kts | 153° |
| 2026-04-20 16:40 | 32.41194 | 28.54998 | 40690 ft | 528 kts | 153° |
| 2026-04-20 16:41 | 32.38111 | 28.57384 | 39925 ft | 531 kts | 153° |
| 2026-04-20 16:41 | 32.35001 | 28.59783 | 39135 ft | 535 kts | 153° |
| 2026-04-20 16:41 | 32.31875 | 28.62191 | 38286 ft | 538 kts | 153° |
| 2026-04-20 16:41 | 32.28733 | 28.64612 | 37331 ft | 540 kts | 153° |
| 2026-04-20 16:42 | 32.25579 | 28.67041 | 36498 ft | 541 kts | 153° |
| 2026-04-20 16:42 | 32.22423 | 28.69473 | 35660 ft | 541 kts | 153° |
| 2026-04-20 16:42 | 32.19266 | 28.71903 | 34858 ft | 542 kts | 152° |
| 2026-04-20 16:42 | 32.16110 | 28.74332 | 34029 ft | 542 kts | 152° |
| 2026-04-20 16:43 | 32.12949 | 28.76760 | 33073 ft | 542 kts | 152° |
| 2026-04-20 16:43 | 32.09824 | 28.79158 | 32126 ft | 543 kts | 151° |
| 2026-04-20 16:43 | 32.06653 | 28.81589 | 31190 ft | 543 kts | 151° |
| 2026-04-20 16:43 | 32.03479 | 28.84020 | 30313 ft | 543 kts | 150° |
| 2026-04-20 16:44 | 32.00325 | 28.86436 | 29573 ft | 538 kts | 150° |
| 2026-04-20 16:44 | 31.97210 | 28.88822 | 28923 ft | 530 kts | 150° |
| 2026-04-20 16:44 | 31.94135 | 28.91176 | 28322 ft | 523 kts | 150° |
| 2026-04-20 16:44 | 31.91104 | 28.93493 | 27722 ft | 516 kts | 150° |
| 2026-04-20 16:45 | 31.88147 | 28.95750 | 27145 ft | 510 kts | 149° |
| 2026-04-20 16:45 | 31.85186 | 28.98008 | 26561 ft | 504 kts | 149° |
| 2026-04-20 16:45 | 31.82258 | 29.00238 | 25968 ft | 499 kts | 149° |
| 2026-04-20 16:45 | 31.79361 | 29.02443 | 25403 ft | 493 kts | 149° |
| 2026-04-20 16:46 | 31.76497 | 29.04621 | 24826 ft | 488 kts | 149° |
| 2026-04-20 16:46 | 31.73798 | 29.07013 | 24236 ft | 485 kts | 139° |
| 2026-04-20 16:46 | 31.71518 | 29.09912 | 23634 ft | 482 kts | 130° |
| 2026-04-20 16:46 | 31.69450 | 29.12985 | 22984 ft | 477 kts | 127° |
| 2026-04-20 16:47 | 31.67506 | 29.16097 | 22388 ft | 470 kts | 126° |
| 2026-04-20 16:47 | 31.65658 | 29.19162 | 21831 ft | 463 kts | 125° |
| 2026-04-20 16:47 | 31.63822 | 29.22237 | 21300 ft | 457 kts | 125° |
| 2026-04-20 16:47 | 31.61994 | 29.25288 | 20718 ft | 457 kts | 125° |
| 2026-04-20 16:48 | 31.60159 | 29.28327 | 20234 ft | 455 kts | 126° |
| 2026-04-20 16:48 | 31.58329 | 29.31335 | 19739 ft | 452 kts | 126° |
| 2026-04-20 16:48 | 31.56504 | 29.34323 | 19257 ft | 448 kts | 126° |
| 2026-04-20 16:48 | 31.54688 | 29.37273 | 18787 ft | 444 kts | 126° |
| 2026-04-20 16:49 | 31.52902 | 29.40161 | 18325 ft | 441 kts | 126° |
| 2026-04-20 16:49 | 31.51108 | 29.43057 | 17800 ft | 437 kts | 126° |
| 2026-04-20 16:49 | 31.49331 | 29.45925 | 17264 ft | 433 kts | 126° |
| 2026-04-20 16:49 | 31.47569 | 29.48769 | 16753 ft | 429 kts | 126° |
| 2026-04-20 16:50 | 31.45825 | 29.51586 | 16247 ft | 425 kts | 126° |
| 2026-04-20 16:50 | 31.44094 | 29.54380 | 15749 ft | 422 kts | 126° |
| 2026-04-20 16:50 | 31.42381 | 29.57144 | 15262 ft | 418 kts | 126° |
| 2026-04-20 16:50 | 31.40679 | 29.59888 | 14779 ft | 415 kts | 126° |
| 2026-04-20 16:51 | 31.38986 | 29.62618 | 14303 ft | 413 kts | 126° |
| 2026-04-20 16:51 | 31.37305 | 29.65325 | 13817 ft | 410 kts | 126° |
| 2026-04-20 16:51 | 31.35657 | 29.67977 | 13300 ft | 406 kts | 126° |
| 2026-04-20 16:51 | 31.34003 | 29.70637 | 12792 ft | 403 kts | 126° |
| 2026-04-20 16:52 | 31.32364 | 29.73270 | 12277 ft | 397 kts | 126° |
| 2026-04-20 16:52 | 31.30754 | 29.75857 | 11779 ft | 389 kts | 126° |
| 2026-04-20 16:52 | 31.29175 | 29.78392 | 11285 ft | 382 kts | 126° |
| 2026-04-20 16:52 | 31.27623 | 29.80880 | 10802 ft | 375 kts | 126° |
| 2026-04-20 16:53 | 31.26104 | 29.83316 | 10307 ft | 368 kts | 126° |
| 2026-04-20 16:53 | 31.24611 | 29.85706 | 9849 ft | 361 kts | 126° |
| 2026-04-20 16:53 | 31.23141 | 29.88060 | 9313 ft | 355 kts | 126° |
| 2026-04-20 16:53 | 31.21715 | 29.90340 | 8799 ft | 349 kts | 126° |
| 2026-04-20 16:54 | 31.20222 | 29.92548 | 8291 ft | 343 kts | 135° |
| 2026-04-20 16:54 | 31.18302 | 29.94115 | 7810 ft | 334 kts | 159° |
| 2026-04-20 16:54 | 31.16080 | 29.94573 | 7444 ft | 319 kts | 185° |
| 2026-04-20 16:54 | 31.13900 | 29.94357 | 7068 ft | 311 kts | 190° |
| 2026-04-20 16:55 | 31.11780 | 29.94039 | 6704 ft | 304 kts | 191° |
| 2026-04-20 16:55 | 31.09702 | 29.93717 | 6338 ft | 298 kts | 191° |
| 2026-04-20 16:55 | 31.07663 | 29.93402 | 5954 ft | 293 kts | 191° |
| 2026-04-20 16:55 | 31.05669 | 29.93095 | 5643 ft | 285 kts | 191° |
| 2026-04-20 16:56 | 31.03750 | 29.92802 | 5336 ft | 278 kts | 191° |
| 2026-04-20 16:56 | 31.01851 | 29.92512 | 5041 ft | 272 kts | 191° |
| 2026-04-20 16:56 | 30.99989 | 29.92227 | 4732 ft | 267 kts | 191° |
| 2026-04-20 16:56 | 30.98163 | 29.91947 | 4426 ft | 262 kts | 191° |
| 2026-04-20 16:57 | 30.96378 | 29.91674 | 4167 ft | 255 kts | 191° |
| 2026-04-20 16:57 | 30.94642 | 29.91411 | 3958 ft | 248 kts | 191° |
| 2026-04-20 16:57 | 30.92956 | 29.91155 | 3754 ft | 241 kts | 191° |
| 2026-04-20 16:57 | 30.91311 | 29.90905 | 3531 ft | 235 kts | 191° |
| 2026-04-20 16:58 | 30.89720 | 29.90662 | 3329 ft | 227 kts | 191° |
| 2026-04-20 16:58 | 30.88176 | 29.90428 | 3105 ft | 222 kts | 191° |
| 2026-04-20 16:58 | 30.86652 | 29.90191 | 2873 ft | 220 kts | 191° |
| 2026-04-20 16:58 | 30.85135 | 29.89960 | 2646 ft | 219 kts | 191° |
| 2026-04-20 16:59 | 30.83625 | 29.89731 | 2422 ft | 218 kts | 191° |
| 2026-04-20 16:59 | 30.82147 | 29.89508 | 2322 ft | 217 kts | 191° |
| 2026-04-20 16:59 | 30.80674 | 29.89166 | 2239 ft | 213 kts | 204° |
| 2026-04-20 16:59 | 30.79534 | 29.88250 | 2156 ft | 191 kts | 232° |
| 2026-04-20 17:00 | 30.77965 | 29.85887 | 2043 ft | 182 kts | 239° |
| 2026-04-20 17:00 | 30.77375 | 29.84617 | 2032 ft | 178 kts | 257° |
| 2026-04-20 17:00 | 30.77375 | 29.83233 | 2040 ft | 171 kts | 296° |
| 2026-04-20 17:01 | 30.77992 | 29.82077 | 2032 ft | 168 kts | 309° |
| 2026-04-20 17:01 | 30.78778 | 29.81080 | 2033 ft | 168 kts | 321° |
| 2026-04-20 17:01 | 30.79713 | 29.80268 | 2037 ft | 167 kts | 321° |
| 2026-04-20 17:01 | 30.80622 | 29.79453 | 2033 ft | 167 kts | 321° |
| 2026-04-20 17:02 | 30.81550 | 29.78631 | 2033 ft | 167 kts | 321° |
| 2026-04-20 17:02 | 30.82474 | 29.77807 | 2033 ft | 167 kts | 321° |
| 2026-04-20 17:02 | 30.83398 | 29.76985 | 1916 ft | 165 kts | 321° |
| 2026-04-20 17:02 | 30.84301 | 29.76188 | 1698 ft | 161 kts | 321° |
| 2026-04-20 17:03 | 30.85191 | 29.75406 | 1456 ft | 159 kts | 322° |
| 2026-04-20 17:03 | 30.86069 | 29.74631 | 1257 ft | 158 kts | 322° |
| 2026-04-20 17:03 | 30.86938 | 29.73853 | 1031 ft | 156 kts | 322° |
| 2026-04-20 17:03 | 30.87794 | 29.73094 | 826 ft | 152 kts | 325° |
| 2026-04-20 17:04 | 30.88644 | 29.72401 | 669 ft | 145 kts | 323° |
| 2026-04-20 17:04 | 30.89398 | 29.71703 | 508 ft | 133 kts | 321° |
| 2026-04-20 17:04 | 30.90102 | 29.71078 | 323 ft | 126 kts | 324° |
| 2026-04-20 17:04 | 30.90780 | 29.70485 | 177 ft | 118 kts | 326° |
| 2026-04-20 17:05 | 30.91357 | 29.69979 | 167 ft | 86 kts | 322° |
| 2026-04-20 17:05 | 30.91757 | 29.69628 | 166 ft | 59 kts | 323° |
| 2026-04-20 17:05 | 30.92018 | 29.69401 | 168 ft | 34 kts | 323° |
| 2026-04-20 17:05 | 30.92192 | 29.69250 | 169 ft | 29 kts | 323° |
| 2026-04-20 17:06 | 30.92348 | 29.69115 | 168 ft | 27 kts | 323° |
| 2026-04-20 17:06 | 30.92469 | 29.69032 | 168 ft | 9 kts | 6° |
| 2026-04-20 17:06 | 30.92498 | 29.69050 | 169 ft | 0 kts | 36° |
| 2026-04-20 17:06 | 30.92502 | 29.69054 | 169 ft | 3 kts | 36° |
| 2026-04-20 17:07 | 30.92532 | 29.69082 | 169 ft | 8 kts | 44° |
| 2026-04-20 17:07 | 30.92579 | 29.69150 | 169 ft | 13 kts | 53° |
| 2026-04-20 17:07 | 30.92644 | 29.69252 | 170 ft | 18 kts | 53° |
| 2026-04-20 17:07 | 30.92728 | 29.69381 | 170 ft | 22 kts | 52° |
| 2026-04-20 17:08 | 30.92829 | 29.69532 | 171 ft | 26 kts | 52° |
| 2026-04-20 17:08 | 30.92972 | 29.69593 | 172 ft | 25 kts | 327° |
| 2026-04-20 17:08 | 30.93082 | 29.69529 | 172 ft | 10 kts | 5° |
| 2026-04-20 17:08 | 30.93132 | 29.69554 | 173 ft | 4 kts | 53° |
| 2026-04-20 17:09 | 30.93133 | 29.69557 | 173 ft | 0 kts | 52° |